Time;durP1;ratioP1;P1;durP2;ratioP2;P2;SDS_P1;SDS_P2;PMS_P1;PMS_P2;Temp;Humidity;BMP_temperature;BMP_pressure;BME280_temperature;BME280_humidity;BME280_pressure;Samples;Min_cycle;Max_cycle;Signal;HPM_P1;HPM_P2
2024/01/08 00:00:47;;;;;;;4.30;3.90;;;5.30;94.30;;;;;;5026635;28;20192;-35
2024/01/08 00:03:18;;;;;;;4.30;3.90;;;5.30;94.40;;;;;;5046232;28;20981;-34
2024/01/08 00:05:45;;;;;;;4.60;4.20;;;5.30;94.30;;;;;;5060445;28;20189;-34
2024/01/08 00:08:14;;;;;;;9.40;4.00;;;5.30;94.30;;;;;;5059922;28;20808;-35
2024/01/08 00:10:43;;;;;;;5.13;4.63;;;5.20;94.30;;;;;;5052069;28;20246;-39
2024/01/08 00:13:09;;;;;;;5.47;3.90;;;5.20;94.30;;;;;;5041779;28;20211;-33
2024/01/08 00:15:37;;;;;;;4.20;3.80;;;5.30;94.40;;;;;;5058880;28;20677;-35
2024/01/08 00:18:04;;;;;;;3.90;3.50;;;5.20;94.20;;;;;;5059826;28;21050;-37
2024/01/08 00:20:30;;;;;;;3.75;3.45;;;5.20;94.30;;;;;;5058998;28;20184;-32
2024/01/08 00:22:56;;;;;;;3.70;3.40;;;5.20;94.00;;;;;;5059815;28;20204;-35
2024/01/08 00:25:23;;;;;;;4.78;3.50;;;5.20;94.10;;;;;;5027725;28;20216;-35
2024/01/08 00:27:50;;;;;;;4.20;3.83;;;5.20;94.20;;;;;;5059586;28;20235;-39
2024/01/08 00:30:18;;;;;;;4.22;3.83;;;5.20;94.30;;;;;;5060871;28;20643;-36
2024/01/08 00:32:49;;;;;;;5.45;3.60;;;5.20;94.40;;;;;;5008445;28;20219;-36
2024/01/08 00:35:15;;;;;;;3.60;3.30;;;5.20;94.40;;;;;;5039919;28;20194;-36
2024/01/08 00:37:41;;;;;;;3.88;3.58;;;5.20;94.40;;;;;;5039753;28;20188;-35
2024/01/08 00:40:09;;;;;;;4.13;3.72;;;5.20;94.40;;;;;;5054991;28;20614;-40
2024/01/08 00:42:36;;;;;;;3.67;3.38;;;5.20;94.20;;;;;;5045735;28;20191;-38
2024/01/08 00:45:03;;;;;;;4.93;4.53;;;5.20;94.10;;;;;;5059431;28;20187;-37
2024/01/08 00:47:30;;;;;;;4.70;4.20;;;5.20;94.00;;;;;;5061063;28;20195;-36
2024/01/08 00:49:59;;;;;;;4.13;3.72;;;5.20;94.00;;;;;;5044200;28;20207;-40
2024/01/08 00:52:25;;;;;;;4.13;3.83;;;5.20;94.00;;;;;;5061777;28;20326;-36
2024/01/08 00:54:53;;;;;;;4.80;4.37;;;5.20;94.10;;;;;;5043660;28;20286;-37
2024/01/08 00:57:22;;;;;;;5.18;3.80;;;5.20;94.20;;;;;;5088474;22;20498;-84
2024/01/08 00:59:48;;;;;;;4.27;3.87;;;5.20;94.20;;;;;;5048372;28;20907;-84
2024/01/08 01:02:16;;;;;;;4.40;4.00;;;5.20;94.30;;;;;;5081724;28;20425;-85
2024/01/08 01:04:47;;;;;;;5.90;4.00;;;5.20;94.30;;;;;;5088433;28;20211;-83
2024/01/08 01:07:13;;;;;;;6.13;4.30;;;5.20;94.30;;;;;;5072284;28;20204;-83
2024/01/08 01:09:39;;;;;;;3.87;3.57;;;5.20;94.40;;;;;;5056612;28;20216;-85
2024/01/08 01:12:32;;;;;;;5.13;4.33;;;5.20;94.50;;;;;;5061241;28;21284;-84
2024/01/08 01:14:59;;;;;;;4.60;4.20;;;5.10;94.40;;;;;;5059414;28;20847;-83
2024/01/08 01:17:28;;;;;;;6.35;4.55;;;5.20;94.40;;;;;;5094539;28;20520;-85
2024/01/08 01:19:54;;;;;;;5.40;4.95;;;5.10;94.40;;;;;;5082010;28;20186;-84
2024/01/08 01:22:20;;;;;;;5.38;4.13;;;5.10;94.30;;;;;;5067403;28;20203;-84
2024/01/08 01:24:46;;;;;;;4.85;4.35;;;5.10;94.40;;;;;;5065773;28;20202;-84
2024/01/08 01:27:12;;;;;;;4.57;4.17;;;5.20;94.30;;;;;;5047856;28;20237;-84
2024/01/08 01:29:40;;;;;;;4.47;4.00;;;5.10;94.20;;;;;;5045244;28;20917;-83
2024/01/08 01:32:11;;;;;;;5.20;4.43;;;5.10;94.20;;;;;;5064917;28;20211;-84
2024/01/08 01:34:39;;;;;;;4.20;3.70;;;5.10;94.50;;;;;;5062133;28;20180;-84
2024/01/08 01:37:05;;;;;;;7.70;4.68;;;5.10;94.00;;;;;;5044748;28;20218;-84
2024/01/08 01:39:32;;;;;;;5.32;4.82;;;5.10;93.80;;;;;;5054296;28;20202;-83
2024/01/08 01:41:58;;;;;;;5.00;4.45;;;5.10;93.80;;;;;;5069026;28;20226;-83
2024/01/08 01:44:24;;;;;;;4.80;4.30;;;5.10;93.90;;;;;;5094916;28;20191;-83
2024/01/08 01:46:54;;;;;;;7.90;4.40;;;5.10;94.00;;;;;;5080554;28;20428;-84
2024/01/08 01:49:22;;;;;;;5.63;4.85;;;5.10;94.00;;;;;;5080299;28;20509;-84
2024/01/08 01:51:48;;;;;;;5.10;4.65;;;5.10;94.10;;;;;;5070554;28;20214;-84
2024/01/08 01:54:26;;;;;;;5.95;4.63;;;5.10;94.20;;;;;;5051954;28;20218;-85
2024/01/08 01:56:59;;;;;;;5.00;4.50;;;5.10;94.30;;;;;;5054384;28;20210;-84
2024/01/08 01:59:32;;;;;;;4.82;4.43;;;5.10;94.30;;;;;;5065731;28;20211;-84
2024/01/08 02:01:59;;;;;;;5.20;4.70;;;5.10;94.30;;;;;;5066766;28;20176;-84
2024/01/08 02:04:29;;;;;;;5.20;4.47;;;5.10;94.30;;;;;;5063878;28;20195;-84
2024/01/08 02:06:58;;;;;;;4.65;4.18;;;5.10;94.40;;;;;;5064826;28;20190;-83
2024/01/08 02:09:26;;;;;;;5.35;4.85;;;5.10;94.30;;;;;;5069643;28;20203;-85
2024/01/08 02:11:57;;;;;;;5.32;4.82;;;5.10;94.30;;;;;;5047483;28;20211;-84
2024/01/08 02:14:25;;;;;;;5.53;4.85;;;5.00;94.20;;;;;;5047062;28;20183;-84
2024/01/08 02:16:51;;;;;;;4.78;4.10;;;5.10;94.20;;;;;;5056193;28;20526;-85
2024/01/08 02:19:17;;;;;;;5.30;4.80;;;5.10;94.30;;;;;;5067226;28;20191;-84
2024/01/08 02:21:43;;;;;;;4.90;4.40;;;5.00;94.30;;;;;;5062741;28;20434;-84
2024/01/08 02:24:09;;;;;;;4.93;4.30;;;5.00;94.20;;;;;;5060027;28;20446;-84
2024/01/08 02:26:36;;;;;;;5.20;4.70;;;5.10;94.20;;;;;;5069085;28;20780;-84
2024/01/08 02:29:04;;;;;;;4.65;4.25;;;5.00;94.20;;;;;;5081817;28;20198;-84
2024/01/08 02:31:30;;;;;;;5.53;4.78;;;5.10;94.30;;;;;;5084880;28;20718;-85
2024/01/08 02:33:59;;;;;;;5.43;4.80;;;5.00;94.30;;;;;;5049834;28;20183;-84
2024/01/08 02:36:25;;;;;;;5.37;4.63;;;5.00;94.30;;;;;;5065171;28;20214;-84
2024/01/08 02:38:51;;;;;;;4.57;4.17;;;5.00;94.30;;;;;;5041509;28;20413;-84
2024/01/08 02:41:16;;;;;;;5.73;5.10;;;5.00;94.30;;;;;;5073287;28;20520;-84
2024/01/08 02:43:42;;;;;;;5.57;5.07;;;5.00;94.30;;;;;;5048029;28;20447;-84
2024/01/08 02:46:10;;;;;;;5.50;4.67;;;5.00;94.30;;;;;;5049141;28;21324;-84
2024/01/08 02:48:36;;;;;;;10.55;5.10;;;5.00;94.70;;;;;;5050419;28;20906;-84
2024/01/08 02:51:02;;;;;;;5.53;4.90;;;5.00;94.40;;;;;;5047315;28;20210;-83
2024/01/08 02:53:31;;;;;;;5.68;5.07;;;5.00;94.40;;;;;;5054805;28;20474;-83
2024/01/08 02:55:56;;;;;;;5.15;4.65;;;5.00;94.30;;;;;;5063784;28;20413;-84
2024/01/08 02:58:22;;;;;;;5.80;4.90;;;5.00;94.30;;;;;;5031815;28;20210;-84
2024/01/08 03:00:48;;;;;;;6.13;4.83;;;5.00;94.40;;;;;;5038803;28;20452;-84
2024/01/08 03:03:14;;;;;;;4.90;4.47;;;5.00;94.40;;;;;;5063492;28;20536;-85
2024/01/08 03:05:42;;;;;;;5.30;4.80;;;5.00;94.40;;;;;;5042789;28;20766;-85
2024/01/08 03:08:08;;;;;;;5.85;5.28;;;5.00;94.40;;;;;;5046077;28;20426;-85
2024/01/08 03:10:34;;;;;;;6.73;5.40;;;5.00;94.40;;;;;;5056946;28;20762;-84
2024/01/08 03:13:00;;;;;;;5.63;4.80;;;4.90;94.30;;;;;;5050370;28;20480;-84
2024/01/08 03:15:29;;;;;;;4.72;4.20;;;5.00;94.40;;;;;;5064193;28;20441;-85
2024/01/08 03:17:55;;;;;;;7.15;5.88;;;4.90;94.40;;;;;;5046835;28;20183;-84
2024/01/08 03:20:22;;;;;;;5.10;4.60;;;5.00;94.50;;;;;;5054928;28;20238;-85
2024/01/08 03:22:52;;;;;;;5.25;4.75;;;5.00;94.40;;;;;;5044744;28;20468;-84
2024/01/08 03:25:20;;;;;;;6.82;5.70;;;5.00;94.40;;;;;;5064620;28;20188;-84
2024/01/08 03:27:46;;;;;;;5.27;4.80;;;4.90;94.40;;;;;;5048954;28;20191;-83
2024/01/08 03:30:15;;;;;;;5.80;5.13;;;4.90;94.40;;;;;;5054902;28;20294;-83
2024/01/08 03:32:41;;;;;;;5.55;5.05;;;5.00;94.50;;;;;;5029009;28;20466;-84
2024/01/08 03:35:10;;;;;;;5.78;5.18;;;5.00;94.50;;;;;;5066696;28;20194;-85
2024/01/08 03:37:36;;;;;;;5.97;5.25;;;4.90;94.50;;;;;;5035497;28;20287;-84
2024/01/08 03:40:04;;;;;;;6.03;5.20;;;4.90;94.60;;;;;;5025468;28;20265;-84
2024/01/08 03:42:32;;;;;;;5.75;5.25;;;4.90;94.60;;;;;;5069168;28;20215;-85
2024/01/08 03:44:59;;;;;;;5.32;4.82;;;4.90;94.50;;;;;;5037093;28;20294;-84
2024/01/08 03:47:27;;;;;;;7.57;5.93;;;4.90;94.50;;;;;;5054310;28;20180;-84
2024/01/08 03:49:55;;;;;;;6.68;5.45;;;4.90;94.50;;;;;;5042502;28;20680;-84
2024/01/08 03:52:22;;;;;;;6.45;5.72;;;4.90;94.50;;;;;;5050810;28;20211;-84
2024/01/08 03:54:49;;;;;;;6.40;5.80;;;4.90;94.50;;;;;;5054752;28;20191;-85
2024/01/08 03:57:17;;;;;;;7.57;5.80;;;4.90;94.90;;;;;;5051188;28;20194;-84
2024/01/08 03:59:45;;;;;;;6.28;5.35;;;4.90;94.90;;;;;;5056654;28;20191;-84
2024/01/08 04:02:12;;;;;;;7.75;5.45;;;4.90;94.60;;;;;;5035249;28;20269;-85
2024/01/08 04:04:41;;;;;;;5.80;5.22;;;4.90;94.60;;;;;;5051585;28;20200;-83
2024/01/08 04:07:06;;;;;;;6.10;5.50;;;4.90;94.70;;;;;;5059264;28;20736;-84
2024/01/08 04:09:32;;;;;;;8.03;6.47;;;4.90;94.70;;;;;;5062786;28;20286;-85
2024/01/08 04:11:58;;;;;;;6.43;5.83;;;4.90;94.70;;;;;;5071209;28;20465;-84
2024/01/08 04:14:24;;;;;;;6.63;5.47;;;4.90;94.60;;;;;;5050805;28;20460;-83
2024/01/08 04:16:53;;;;;;;6.38;5.72;;;4.90;94.70;;;;;;5051553;28;20854;-84
2024/01/08 04:19:19;;;;;;;7.10;6.40;;;4.90;94.70;;;;;;5051494;28;20187;-84
2024/01/08 04:21:45;;;;;;;6.20;5.60;;;4.90;94.70;;;;;;5049699;28;20474;-84
2024/01/08 04:24:16;;;;;;;8.70;6.65;;;4.90;94.80;;;;;;5053566;28;20422;-83
2024/01/08 04:26:42;;;;;;;6.40;5.15;;;4.90;94.90;;;;;;5062862;28;20196;-84
2024/01/08 04:30:02;;;;;;;6.13;5.50;;;4.90;94.90;;;;;;5067144;28;20203;-85
2024/01/08 04:32:28;;;;;;;6.60;5.85;;;4.90;94.80;;;;;;5066609;28;21317;-85
2024/01/08 04:34:54;;;;;;;6.40;5.80;;;4.90;94.70;;;;;;5046802;28;20316;-84
2024/01/08 04:37:20;;;;;;;7.47;6.77;;;4.90;94.70;;;;;;5037591;28;20450;-84
2024/01/08 04:39:48;;;;;;;7.73;6.93;;;4.90;94.60;;;;;;5057954;28;20441;-85
2024/01/08 04:42:18;;;;;;;7.53;6.68;;;4.90;94.70;;;;;;5057932;28;20216;-84
2024/01/08 04:44:46;;;;;;;6.65;6.05;;;4.90;94.70;;;;;;5039250;28;20621;-84
2024/01/08 04:47:12;;;;;;;7.18;6.47;;;4.80;94.70;;;;;;5049176;28;20184;-85
2024/01/08 04:49:39;;;;;;;7.47;6.57;;;4.90;94.80;;;;;;5040895;28;20965;-84
2024/01/08 04:52:07;;;;;;;7.07;6.28;;;4.90;94.70;;;;;;5065571;28;20215;-84
2024/01/08 04:54:33;;;;;;;7.15;6.20;;;4.90;94.70;;;;;;5048614;28;20283;-84
2024/01/08 04:56:59;;;;;;;6.73;5.97;;;4.90;94.70;;;;;;5060736;28;20208;-85
2024/01/08 04:59:27;;;;;;;7.07;6.37;;;4.90;94.70;;;;;;5064003;28;20470;-83
2024/01/08 05:01:58;;;;;;;7.57;6.50;;;4.80;94.70;;;;;;5021326;28;20450;-83
2024/01/08 05:04:23;;;;;;;6.20;5.55;;;4.90;94.70;;;;;;5031115;28;20196;-83
2024/01/08 05:06:50;;;;;;;8.50;6.20;;;4.80;94.70;;;;;;5058064;28;20206;-85
2024/01/08 05:09:15;;;;;;;7.03;6.17;;;4.80;94.80;;;;;;5068392;28;20930;-85
2024/01/08 05:11:44;;;;;;;6.45;5.75;;;4.90;94.90;;;;;;5056462;28;20462;-83
2024/01/08 05:14:10;;;;;;;8.10;6.30;;;4.80;94.80;;;;;;5068589;28;20249;-85
2024/01/08 05:16:36;;;;;;;6.27;5.67;;;4.80;94.90;;;;;;5040811;28;20433;-84
2024/01/08 05:19:02;;;;;;;6.87;6.17;;;4.80;94.90;;;;;;5042487;28;21053;-83
2024/01/08 05:21:33;;;;;;;6.40;5.80;;;4.80;94.90;;;;;;5070219;28;20466;-83
2024/01/08 05:24:01;;;;;;;6.82;6.05;;;4.80;94.90;;;;;;5052094;28;20506;-85
2024/01/08 05:26:29;;;;;;;6.57;5.97;;;4.80;94.90;;;;;;5057702;28;20597;-83
2024/01/08 05:28:56;;;;;;;8.33;6.47;;;4.80;94.80;;;;;;5040331;28;20188;-85
2024/01/08 05:31:22;;;;;;;7.10;6.30;;;4.80;94.80;;;;;;5068790;28;20452;-84
2024/01/08 05:33:49;;;;;;;7.30;6.60;;;4.80;94.80;;;;;;5054765;28;20212;-83
2024/01/08 05:36:15;;;;;;;6.60;5.97;;;4.80;94.80;;;;;;5040799;28;20246;-84
2024/01/08 05:38:41;;;;;;;6.88;5.93;;;4.80;94.80;;;;;;5053105;28;20219;-83
2024/01/08 05:41:08;;;;;;;8.10;6.75;;;4.80;94.80;;;;;;5053990;28;20184;-83
2024/01/08 05:43:37;;;;;;;6.30;5.70;;;4.80;94.80;;;;;;5040633;28;20253;-83
2024/01/08 05:46:10;;;;;;;6.72;6.10;;;4.80;94.80;;;;;;5057389;28;20184;-83
2024/01/08 05:48:39;;;;;;;8.00;6.13;;;4.80;94.90;;;;;;5054532;28;20196;-84
2024/01/08 05:51:08;;;;;;;10.10;6.93;;;4.80;94.80;;;;;;5057511;28;20222;-83
2024/01/08 05:53:34;;;;;;;7.70;6.05;;;4.80;94.80;;;;;;5039958;28;20211;-84
2024/01/08 05:56:02;;;;;;;7.03;6.32;;;4.80;94.80;;;;;;5056976;28;20179;-84
2024/01/08 05:58:28;;;;;;;8.48;6.57;;;4.80;94.60;;;;;;5056868;28;20606;-84
2024/01/08 06:00:54;;;;;;;6.68;5.97;;;4.80;94.60;;;;;;5073570;28;20179;-82
2024/01/08 06:03:23;;;;;;;7.38;5.55;;;4.80;94.60;;;;;;5032043;28;20943;-83
2024/01/08 06:05:50;;;;;;;7.97;7.18;;;4.80;94.60;;;;;;5073206;28;20656;-83
2024/01/08 06:08:16;;;;;;;9.52;7.03;;;4.80;94.60;;;;;;5064504;28;20188;-84
2024/01/08 06:10:48;;;;;;;7.22;6.32;;;4.70;94.60;;;;;;5032319;28;20526;-83
2024/01/08 06:13:14;;;;;;;6.97;6.28;;;4.70;94.70;;;;;;5047002;28;20220;-84
2024/01/08 06:15:41;;;;;;;7.95;5.65;;;4.80;94.70;;;;;;5054056;28;20223;-84
2024/01/08 06:18:07;;;;;;;17.80;6.73;;;4.70;94.70;;;;;;5036906;28;20185;-85
2024/01/08 06:20:33;;;;;;;7.97;6.57;;;4.70;94.80;;;;;;5055404;28;20446;-84
2024/01/08 06:23:00;;;;;;;8.13;6.80;;;4.70;94.80;;;;;;5039588;28;21185;-83
2024/01/08 06:25:26;;;;;;;7.50;5.88;;;4.80;95.20;;;;;;5053278;28;20207;-83
2024/01/08 06:27:52;;;;;;;6.83;6.23;;;4.80;94.80;;;;;;5050860;28;20275;-83
2024/01/08 06:30:18;;;;;;;8.77;6.40;;;4.70;94.80;;;;;;5088848;28;20616;-83
2024/01/08 06:32:45;;;;;;;7.60;6.20;;;4.70;94.80;;;;;;5035684;28;20467;-84
2024/01/08 06:35:23;;;;;;;7.65;6.85;;;4.70;95.10;;;;;;5052560;28;20241;-84
2024/01/08 06:37:49;;;;;;;6.07;5.47;;;4.80;94.80;;;;;;5055917;28;20187;-82
2024/01/08 06:40:15;;;;;;;9.02;7.32;;;4.70;94.70;;;;;;5038900;28;20204;-84
2024/01/08 06:42:42;;;;;;;9.03;7.40;;;4.70;94.70;;;;;;5055763;28;20218;-83
2024/01/08 06:45:12;;;;;;;7.40;6.60;;;4.70;94.70;;;;;;5039816;28;20447;-82
2024/01/08 06:47:38;;;;;;;7.57;6.32;;;4.70;94.60;;;;;;5071882;28;20187;-82
2024/01/08 06:50:05;;;;;;;7.13;6.43;;;4.70;94.60;;;;;;5035596;28;20222;-84
2024/01/08 06:52:33;;;;;;;8.32;7.53;;;4.70;94.50;;;;;;5055762;28;20465;-84
2024/01/08 06:54:59;;;;;;;7.40;6.70;;;4.70;94.50;;;;;;5056500;28;20212;-84
2024/01/08 06:57:25;;;;;;;6.67;6.07;;;4.70;94.90;;;;;;5037787;28;20204;-89
2024/01/08 06:59:51;;;;;;;8.27;6.75;;;4.70;94.60;;;;;;5030186;28;20453;-82
2024/01/08 07:02:17;;;;;;;7.13;6.22;;;4.70;94.50;;;;;;5052542;28;20680;-84
2024/01/08 07:04:45;;;;;;;6.80;6.10;;;4.70;94.60;;;;;;5037802;28;20214;-83
2024/01/08 07:07:11;;;;;;;7.33;6.13;;;4.70;94.50;;;;;;5055379;28;20267;-82
2024/01/08 07:09:37;;;;;;;8.10;6.50;;;4.70;94.50;;;;;;5062267;28;20465;-85
2024/01/08 07:12:04;;;;;;;6.77;6.00;;;4.70;94.60;;;;;;5038532;28;20523;-83
2024/01/08 07:14:31;;;;;;;8.18;7.28;;;4.70;94.70;;;;;;5055193;28;20433;-82
2024/01/08 07:16:57;;;;;;;8.43;6.90;;;4.70;94.70;;;;;;5049595;28;20191;-82
2024/01/08 07:19:25;;;;;;;7.65;6.90;;;4.70;94.70;;;;;;5052204;28;20963;-83
2024/01/08 07:21:54;;;;;;;8.20;6.67;;;4.70;94.60;;;;;;5054653;28;20191;-82
2024/01/08 07:24:22;;;;;;;6.88;6.00;;;4.70;94.60;;;;;;5054958;28;20430;-83
2024/01/08 07:26:48;;;;;;;7.05;6.35;;;4.70;94.40;;;;;;5035060;28;20204;-84
2024/01/08 07:29:14;;;;;;;7.30;6.60;;;4.70;94.20;;;;;;5036952;28;20195;-82
2024/01/08 07:31:42;;;;;;;6.90;6.30;;;4.70;94.20;;;;;;5045038;28;20498;-86
2024/01/08 07:34:08;;;;;;;8.33;6.40;;;4.60;94.20;;;;;;5050328;28;20243;-86
2024/01/08 07:36:34;;;;;;;6.27;5.67;;;4.70;94.30;;;;;;5034970;28;20463;-85
2024/01/08 07:39:00;;;;;;;6.57;5.88;;;4.60;94.30;;;;;;5068471;28;20475;-85
2024/01/08 07:41:28;;;;;;;8.47;6.10;;;4.60;94.40;;;;;;5044558;28;20686;-85
2024/01/08 07:43:54;;;;;;;6.93;6.22;;;4.60;94.50;;;;;;5055556;28;20426;-85
2024/01/08 07:46:20;;;;;;;6.93;6.23;;;4.70;94.50;;;;;;5047939;28;20210;-84
2024/01/08 07:48:46;;;;;;;6.83;6.23;;;4.60;94.50;;;;;;5020152;28;20491;-85
2024/01/08 07:51:12;;;;;;;7.53;6.65;;;4.70;94.60;;;;;;5035828;28;20510;-85
2024/01/08 07:53:38;;;;;;;6.22;5.63;;;4.70;94.50;;;;;;5041497;28;20211;-85
2024/01/08 07:56:04;;;;;;;7.57;6.57;;;4.60;94.40;;;;;;5031210;28;20285;-84
2024/01/08 07:58:30;;;;;;;7.82;6.03;;;4.60;94.50;;;;;;5042112;28;20457;-86
2024/01/08 08:00:56;;;;;;;7.40;6.50;;;4.60;94.50;;;;;;5043771;28;20632;-85
2024/01/08 08:03:22;;;;;;;6.80;6.03;;;4.60;94.40;;;;;;5039736;28;20442;-86
2024/01/08 08:05:48;;;;;;;6.13;5.53;;;4.70;94.50;;;;;;5017150;28;20441;-85
2024/01/08 08:08:13;;;;;;;7.60;5.68;;;4.60;94.40;;;;;;5026014;28;20784;-84
2024/01/08 08:10:41;;;;;;;8.32;6.47;;;4.60;94.30;;;;;;5056546;28;20230;-85
2024/01/08 08:13:07;;;;;;;6.50;5.80;;;4.60;94.40;;;;;;5043659;28;20311;-85
2024/01/08 08:15:33;;;;;;;6.97;5.70;;;4.60;94.40;;;;;;5057395;28;20437;-84
2024/01/08 08:17:59;;;;;;;6.40;5.47;;;4.60;94.40;;;;;;5052937;28;20972;-84
2024/01/08 08:20:25;;;;;;;8.03;6.87;;;4.60;94.40;;;;;;5047445;28;20419;-83
2024/01/08 08:22:51;;;;;;;7.37;5.53;;;4.60;94.50;;;;;;5047494;28;20426;-84
2024/01/08 08:25:18;;;;;;;9.43;6.90;;;4.60;94.50;;;;;;5046792;28;20549;-83
2024/01/08 08:27:43;;;;;;;8.50;6.30;;;4.60;94.60;;;;;;5054490;28;20453;-86
2024/01/08 08:30:12;;;;;;;7.00;6.17;;;4.60;94.60;;;;;;5037164;28;20230;-83
2024/01/08 08:32:40;;;;;;;6.70;6.00;;;4.60;94.60;;;;;;5042554;28;21124;-84
2024/01/08 08:35:08;;;;;;;7.55;6.85;;;4.60;94.60;;;;;;5035900;28;20235;-84
2024/01/08 08:37:36;;;;;;;8.40;7.50;;;4.60;94.60;;;;;;5042167;28;20261;-84
2024/01/08 08:40:03;;;;;;;7.55;6.55;;;4.60;94.60;;;;;;5058150;28;20188;-83
2024/01/08 08:42:29;;;;;;;6.43;5.82;;;4.60;94.50;;;;;;5068908;28;20193;-83
2024/01/08 08:44:55;;;;;;;6.40;5.67;;;4.60;94.50;;;;;;5049156;28;20609;-83
2024/01/08 08:47:21;;;;;;;10.35;5.80;;;4.60;94.60;;;;;;5068802;28;20425;-82
2024/01/08 08:49:47;;;;;;;7.10;6.22;;;4.60;94.50;;;;;;5069185;28;20242;-84
2024/01/08 08:52:13;;;;;;;7.10;6.17;;;4.60;94.60;;;;;;5055513;28;20254;-83
2024/01/08 08:54:41;;;;;;;5.97;5.47;;;4.60;94.70;;;;;;5044661;28;20429;-83
2024/01/08 08:57:07;;;;;;;7.40;6.07;;;4.60;94.60;;;;;;5069537;28;20501;-83
2024/01/08 08:59:37;;;;;;;6.93;5.40;;;4.60;94.60;;;;;;5048848;28;20227;-83
2024/01/08 09:02:03;;;;;;;6.28;5.45;;;4.60;94.60;;;;;;5057043;28;20438;-82
2024/01/08 09:04:32;;;;;;;6.97;6.00;;;4.60;94.70;;;;;;5052546;28;20196;-83
2024/01/08 09:11:16;;;;;;;6.70;5.78;;;4.60;94.70;;;;;;5085378;28;20272;-89
2024/01/08 09:13:52;;;;;;;7.70;6.30;;;4.60;94.80;;;;;;5057913;28;20212;-88
2024/01/08 09:16:18;;;;;;;6.95;6.10;;;4.60;95.00;;;;;;5051421;28;20192;-92
2024/01/08 09:18:47;;;;;;;6.28;5.60;;;4.50;95.00;;;;;;5058631;28;20195;-88
2024/01/08 09:21:14;;;;;;;6.72;5.40;;;4.50;95.10;;;;;;5041024;28;20264;-85
2024/01/08 09:23:40;;;;;;;6.68;5.65;;;4.60;95.00;;;;;;5072233;28;20195;-88
2024/01/08 09:26:06;;;;;;;6.68;5.97;;;4.50;94.90;;;;;;5041596;28;20609;-85
2024/01/08 09:28:33;;;;;;;10.30;7.15;;;4.50;94.90;;;;;;5065008;28;20644;-86
2024/01/08 09:31:03;;;;;;;8.40;6.20;;;4.60;94.90;;;;;;5059189;28;20199;-87
2024/01/08 09:33:30;;;;;;;8.95;6.30;;;4.60;94.90;;;;;;5053426;28;20211;-87
2024/01/08 09:35:56;;;;;;;7.60;6.78;;;4.60;94.90;;;;;;5066291;28;20729;-86
2024/01/08 09:38:47;;;;;;;8.15;6.60;;;4.60;94.80;;;;;;5038354;28;20286;-86
2024/01/08 09:41:14;;;;;;;7.18;6.05;;;4.50;94.80;;;;;;5077765;28;20242;-87
2024/01/08 09:43:46;;;;;;;7.45;6.10;;;4.60;94.70;;;;;;5078147;28;20214;-90
2024/01/08 09:46:18;;;;;;;5.57;5.00;;;4.60;94.80;;;;;;5068447;28;20270;-84
2024/01/08 09:48:45;;;;;;;8.25;6.82;;;4.50;94.70;;;;;;5038738;28;20266;-87
2024/01/08 09:51:11;;;;;;;6.70;6.05;;;4.60;94.70;;;;;;5036287;28;20527;-87
2024/01/08 09:53:37;;;;;;;7.18;6.22;;;4.60;94.70;;;;;;5044673;28;20207;-88
2024/01/08 09:56:04;;;;;;;6.37;5.70;;;4.60;94.60;;;;;;5066910;28;20703;-88
2024/01/08 09:58:29;;;;;;;6.38;5.57;;;4.50;94.50;;;;;;5071124;28;20450;-87
2024/01/08 10:00:55;;;;;;;8.10;6.20;;;4.50;94.40;;;;;;5069144;28;20722;-90
2024/01/08 10:03:21;;;;;;;7.00;5.50;;;4.60;94.30;;;;;;5059506;28;20873;-86
2024/01/08 10:05:48;;;;;;;5.63;4.80;;;4.50;94.20;;;;;;5049900;28;20454;-88
2024/01/08 10:08:13;;;;;;;7.15;5.45;;;4.60;94.10;;;;;;5042585;28;21085;-89
2024/01/08 10:10:39;;;;;;;6.07;5.47;;;4.50;93.90;;;;;;5070176;28;20203;-88
2024/01/08 10:13:09;;;;;;;6.93;5.60;;;4.60;93.90;;;;;;5054795;28;20489;-87
2024/01/08 10:15:35;;;;;;;5.75;5.25;;;4.60;93.80;;;;;;5085167;28;20418;-84
2024/01/08 10:18:05;;;;;;;5.13;4.63;;;4.60;93.80;;;;;;5043477;28;20191;-86
2024/01/08 10:20:34;;;;;;;6.13;5.25;;;4.60;93.70;;;;;;5061015;28;20203;-85
2024/01/08 10:23:07;;;;;;;6.15;5.55;;;4.50;93.60;;;;;;5070058;28;20264;-85
2024/01/08 10:25:39;;;;;;;5.40;4.70;;;4.50;93.50;;;;;;5066640;28;20267;-87
2024/01/08 10:28:11;;;;;;;5.70;5.20;;;4.50;93.40;;;;;;5069208;28;20288;-86
2024/01/08 10:30:39;;;;;;;5.47;4.88;;;4.50;93.30;;;;;;5038059;28;20210;-86
2024/01/08 10:33:08;;;;;;;5.57;5.07;;;4.50;93.30;;;;;;5068330;28;20204;-86
2024/01/08 10:35:39;;;;;;;5.93;4.60;;;4.50;93.10;;;;;;5074740;28;20281;-85
2024/01/08 10:38:06;;;;;;;4.93;4.43;;;4.50;93.10;;;;;;5062413;28;20184;-86
2024/01/08 10:40:33;;;;;;;5.25;4.47;;;4.50;93.10;;;;;;5065741;28;20216;-86
2024/01/08 10:42:59;;;;;;;7.65;5.20;;;4.50;92.90;;;;;;5045086;28;20267;-85
2024/01/08 10:45:25;;;;;;;4.97;4.50;;;4.50;92.60;;;;;;5074854;28;20255;-84
2024/01/08 10:48:18;;;;;;;5.45;4.95;;;4.50;92.10;;;;;;5075184;28;20556;-85
2024/01/08 10:50:49;;;;;;;4.40;4.00;;;4.50;91.90;;;;;;5061332;28;20207;-82
2024/01/08 10:53:41;;;;;;;6.13;4.60;;;4.50;91.70;;;;;;5055503;28;20302;-84
2024/01/08 10:56:14;;;;;;;6.00;4.53;;;4.50;91.60;;;;;;5044950;28;20379;-85
2024/01/08 10:59:00;;;;;;;6.15;4.53;;;4.50;91.60;;;;;;5070631;28;20231;-86
2024/01/08 11:01:29;;;;;;;4.53;4.13;;;4.50;91.50;;;;;;5061012;28;20687;-86
2024/01/08 11:03:57;;;;;;;4.30;4.00;;;4.40;91.40;;;;;;5051422;28;20211;-86
2024/01/08 11:06:30;;;;;;;5.00;4.35;;;4.40;91.30;;;;;;5076183;28;20294;-84
2024/01/08 11:09:00;;;;;;;6.10;4.53;;;4.50;91.30;;;;;;5045837;28;20208;-83
2024/01/08 11:11:27;;;;;;;7.85;4.47;;;4.40;91.10;;;;;;5070028;28;20210;-86
2024/01/08 11:13:53;;;;;;;4.57;4.20;;;4.50;90.70;;;;;;5062100;28;20192;-87
2024/01/08 11:16:30;;;;;;;4.88;4.47;;;4.40;90.70;;;;;;5077970;28;20322;-84
2024/01/08 11:19:18;;;;;;;4.63;3.95;;;4.40;90.50;;;;;;5065523;28;20207;-86
2024/01/08 11:22:11;;;;;;;5.97;4.90;;;4.40;90.30;;;;;;5054723;28;20297;-84
2024/01/08 11:24:39;;;;;;;5.40;4.43;;;4.40;90.50;;;;;;5070337;28;20228;-86
2024/01/08 11:27:07;;;;;;;4.32;3.92;;;4.40;90.50;;;;;;5059210;28;20322;-84
2024/01/08 11:29:36;;;;;;;5.70;4.40;;;4.40;90.60;;;;;;5066218;28;20283;-85
2024/01/08 11:32:32;;;;;;;7.30;4.70;;;4.40;90.50;;;;;;5057171;28;20276;-85
2024/01/08 11:35:13;;;;;;;4.47;4.00;;;4.40;90.50;;;;;;5057746;28;20180;-85
2024/01/08 11:37:44;;;;;;;5.10;4.43;;;4.40;90.60;;;;;;5066514;28;20195;-84
2024/01/08 11:40:20;;;;;;;5.03;4.32;;;4.40;90.90;;;;;;5046154;28;20207;-86
2024/01/08 11:42:49;;;;;;;5.50;4.72;;;4.40;91.00;;;;;;5077456;28;20307;-86
2024/01/08 11:45:21;;;;;;;5.78;4.95;;;4.40;91.10;;;;;;5063347;28;20211;-86
2024/01/08 11:47:51;;;;;;;5.13;4.63;;;4.40;91.10;;;;;;5091324;28;20702;-87
2024/01/08 11:50:16;;;;;;;5.88;4.30;;;4.40;91.10;;;;;;5070706;28;20199;-87
2024/01/08 11:52:47;;;;;;;5.53;4.90;;;4.40;91.00;;;;;;5052339;28;20245;-88
2024/01/08 11:55:13;;;;;;;5.03;4.20;;;4.40;90.90;;;;;;5071568;28;20532;-86
2024/01/08 11:57:41;;;;;;;5.03;4.20;;;4.40;90.80;;;;;;5042412;28;20514;-84
2024/01/08 12:00:21;;;;;;;4.95;4.45;;;4.40;90.70;;;;;;5044236;28;20203;-84
2024/01/08 12:02:59;;;;;;;6.38;4.55;;;4.40;90.80;;;;;;5049148;28;20199;-85
2024/01/08 12:05:25;;;;;;;5.13;4.40;;;4.40;90.60;;;;;;5072387;28;20218;-87
2024/01/08 12:07:54;;;;;;;5.03;4.50;;;4.40;90.60;;;;;;5061278;28;20204;-87
2024/01/08 12:10:25;;;;;;;5.50;5.00;;;4.40;90.50;;;;;;5066155;28;20426;-85
2024/01/08 12:12:53;;;;;;;4.63;4.22;;;4.40;90.50;;;;;;5075276;28;20212;-84
2024/01/08 12:15:22;;;;;;;9.05;4.60;;;4.40;90.30;;;;;;5080994;28;20212;-87
2024/01/08 12:17:48;;;;;;;5.43;4.55;;;4.40;90.30;;;;;;5053986;28;20191;-87
2024/01/08 12:20:14;;;;;;;8.35;4.68;;;4.40;90.30;;;;;;5064029;28;20601;-85
2024/01/08 12:22:42;;;;;;;5.20;4.30;;;4.40;90.20;;;;;;5070793;28;20194;-86
2024/01/08 12:25:10;;;;;;;4.68;4.07;;;4.40;90.30;;;;;;5047882;28;20312;-84
2024/01/08 12:27:37;;;;;;;5.72;4.53;;;4.40;90.30;;;;;;5066246;28;20190;-85
2024/01/08 12:30:12;;;;;;;5.00;4.50;;;4.40;90.00;;;;;;5067442;28;20184;-86
2024/01/08 12:32:38;;;;;;;4.30;3.90;;;4.40;89.50;;;;;;5059557;28;20207;-87
2024/01/08 12:35:09;;;;;;;4.93;4.53;;;4.40;89.50;;;;;;5050911;28;20181;-88
2024/01/08 12:37:35;;;;;;;11.10;4.40;;;4.30;89.70;;;;;;5061755;28;20189;-83
2024/01/08 12:40:01;;;;;;;5.90;4.60;;;4.40;89.60;;;;;;5066302;28;20187;-86
2024/01/08 12:42:27;;;;;;;5.65;4.38;;;4.40;89.40;;;;;;5062979;28;20234;-86
2024/01/08 12:44:54;;;;;;;5.57;4.78;;;4.40;89.30;;;;;;5046121;28;20788;-84
2024/01/08 12:47:20;;;;;;;4.90;4.40;;;4.40;89.40;;;;;;5067519;28;20206;-83
2024/01/08 12:49:46;;;;;;;4.70;4.30;;;4.30;89.30;;;;;;5073303;28;20203;-84
2024/01/08 12:52:12;;;;;;;4.80;4.30;;;4.30;89.10;;;;;;5058635;28;20217;-88
2024/01/08 12:54:40;;;;;;;4.75;4.10;;;4.30;89.20;;;;;;5058786;28;20412;-86
2024/01/08 12:57:06;;;;;;;4.80;4.30;;;4.30;88.90;;;;;;5070338;28;20217;-85
2024/01/08 12:59:37;;;;;;;5.25;4.28;;;4.30;88.80;;;;;;5061858;28;20305;-86
2024/01/08 13:02:03;;;;;;;7.65;4.30;;;4.40;88.80;;;;;;5061798;28;20253;-85
2024/01/08 13:04:29;;;;;;;5.50;4.57;;;4.40;89.10;;;;;;5036143;28;20226;-85
2024/01/08 13:06:55;;;;;;;4.70;4.20;;;4.30;89.50;;;;;;5047950;28;20764;-87